<?xml version="1.0" encoding="UTF-8"?><gpx xmlns="http://www.topografix.com/GPX/1/1" version="1.1" creator="iOrient"><trk><name>Открытый трейл - "Слуда"</name><trkseg><trkpt lat="56.2883780" lon="43.9791010"><time>2020-05-30T16:25:55.190</time></trkpt><trkpt lat="56.2883860" lon="43.9792750"><time>2020-05-30T16:25:56.010</time></trkpt><trkpt lat="56.2884350" lon="43.9795380"><time>2020-05-30T16:25:57.003</time></trkpt><trkpt lat="56.2884080" lon="43.9793860"><time>2020-05-30T16:25:59.007</time></trkpt><trkpt lat="56.2884470" lon="43.9792000"><time>2020-05-30T16:26:00.007</time></trkpt><trkpt lat="56.2885010" lon="43.9790660"><time>2020-05-30T16:26:01.007</time></trkpt><trkpt lat="56.2884450" lon="43.9791090"><time>2020-05-30T16:26:02.003</time></trkpt><trkpt lat="56.2884850" lon="43.9790290"><time>2020-05-30T16:26:03.003</time></trkpt><trkpt lat="56.2883560" lon="43.9789060"><time>2020-05-30T16:26:04.003</time></trkpt><trkpt lat="56.2883940" lon="43.9789790"><time>2020-05-30T16:26:06.007</time></trkpt><trkpt lat="56.2883490" lon="43.9789070"><time>2020-05-30T16:26:07.007</time></trkpt><trkpt lat="56.2884680" lon="43.9790200"><time>2020-05-30T16:26:08.003</time></trkpt><trkpt lat="56.2885110" lon="43.9788070"><time>2020-05-30T16:26:09.003</time></trkpt><trkpt lat="56.2884470" lon="43.9787650"><time>2020-05-30T16:26:10.007</time></trkpt><trkpt lat="56.2885140" lon="43.9786600"><time>2020-05-30T16:26:12.003</time></trkpt><trkpt lat="56.2885520" lon="43.9787650"><time>2020-05-30T16:26:13.003</time></trkpt><trkpt lat="56.2884790" lon="43.9781830"><time>2020-05-30T16:26:14.003</time></trkpt><trkpt lat="56.2885210" lon="43.9780230"><time>2020-05-30T16:26:15.003</time></trkpt><trkpt lat="56.2885680" lon="43.9779130"><time>2020-05-30T16:26:16.003</time></trkpt><trkpt lat="56.2885620" lon="43.9777290"><time>2020-05-30T16:26:18.007</time></trkpt><trkpt lat="56.2885370" lon="43.9778520"><time>2020-05-30T16:26:19.003</time></trkpt><trkpt lat="56.2887220" lon="43.9780800"><time>2020-05-30T16:26:21.003</time></trkpt><trkpt lat="56.2887230" lon="43.9779370"><time>2020-05-30T16:26:22.003</time></trkpt><trkpt lat="56.2886840" lon="43.9775200"><time>2020-05-30T16:26:23.003</time></trkpt><trkpt lat="56.2887280" lon="43.9774060"><time>2020-05-30T16:26:24.003</time></trkpt><trkpt lat="56.2887560" lon="43.9775140"><time>2020-05-30T16:26:25.007</time></trkpt><trkpt lat="56.2887000" lon="43.9773040"><time>2020-05-30T16:26:26.003</time></trkpt><trkpt lat="56.2886390" lon="43.9772460"><time>2020-05-30T16:26:27.003</time></trkpt><trkpt lat="56.2886940" lon="43.9770350"><time>2020-05-30T16:26:28.003</time></trkpt><trkpt lat="56.2887070" lon="43.9771260"><time>2020-05-30T16:26:29.003</time></trkpt><trkpt lat="56.2886510" lon="43.9770260"><time>2020-05-30T16:26:30.003</time></trkpt><trkpt lat="56.2886560" lon="43.9769070"><time>2020-05-30T16:26:31.003</time></trkpt><trkpt lat="56.2887970" lon="43.9771540"><time>2020-05-30T16:26:32.003</time></trkpt><trkpt lat="56.2887130" lon="43.9771610"><time>2020-05-30T16:26:33.007</time></trkpt><trkpt lat="56.2886880" lon="43.9770020"><time>2020-05-30T16:26:34.003</time></trkpt><trkpt lat="56.2886280" lon="43.9770700"><time>2020-05-30T16:26:35.003</time></trkpt><trkpt lat="56.2886210" lon="43.9766270"><time>2020-05-30T16:26:37.003</time></trkpt><trkpt lat="56.2886970" lon="43.9768580"><time>2020-05-30T16:26:38.003</time></trkpt><trkpt lat="56.2888420" lon="43.9765550"><time>2020-05-30T16:26:39.007</time></trkpt><trkpt lat="56.2887390" lon="43.9765910"><time>2020-05-30T16:26:40.003</time></trkpt><trkpt lat="56.2889410" lon="43.9769580"><time>2020-05-30T16:26:41.007</time></trkpt><trkpt lat="56.2888200" lon="43.9768210"><time>2020-05-30T16:26:42.003</time></trkpt><trkpt lat="56.2888600" lon="43.9764770"><time>2020-05-30T16:26:43.003</time></trkpt><trkpt lat="56.2887620" lon="43.9760300"><time>2020-05-30T16:26:45.003</time></trkpt><trkpt lat="56.2886960" lon="43.9763880"><time>2020-05-30T16:26:46.007</time></trkpt><trkpt lat="56.2886380" lon="43.9760860"><time>2020-05-30T16:26:47.003</time></trkpt><trkpt lat="56.2886460" lon="43.9761820"><time>2020-05-30T16:26:48.007</time></trkpt><trkpt lat="56.2886420" lon="43.9760270"><time>2020-05-30T16:26:49.007</time></trkpt><trkpt lat="56.2884630" lon="43.9757430"><time>2020-05-30T16:26:50.003</time></trkpt><trkpt lat="56.2884480" lon="43.9758390"><time>2020-05-30T16:26:51.007</time></trkpt><trkpt lat="56.2885440" lon="43.9760060"><time>2020-05-30T16:26:52.020</time></trkpt><trkpt lat="56.2886390" lon="43.9762000"><time>2020-05-30T16:26:54.007</time></trkpt><trkpt lat="56.2886150" lon="43.9760270"><time>2020-05-30T16:26:55.003</time></trkpt><trkpt lat="56.2886180" lon="43.9757840"><time>2020-05-30T16:26:56.003</time></trkpt><trkpt lat="56.2884950" lon="43.9756590"><time>2020-05-30T16:26:57.007</time></trkpt><trkpt lat="56.2885340" lon="43.9757800"><time>2020-05-30T16:26:58.003</time></trkpt><trkpt lat="56.2886530" lon="43.9757790"><time>2020-05-30T16:26:59.007</time></trkpt><trkpt lat="56.2885470" lon="43.9755550"><time>2020-05-30T16:27:00.007</time></trkpt><trkpt lat="56.2884400" lon="43.9753430"><time>2020-05-30T16:27:01.007</time></trkpt><trkpt lat="56.2884870" lon="43.9754770"><time>2020-05-30T16:27:02.013</time></trkpt><trkpt lat="56.2883980" lon="43.9753590"><time>2020-05-30T16:27:03.010</time></trkpt><trkpt lat="56.2884980" lon="43.9752440"><time>2020-05-30T16:27:04.007</time></trkpt><trkpt lat="56.2885670" lon="43.9754390"><time>2020-05-30T16:27:05.003</time></trkpt><trkpt lat="56.2885570" lon="43.9755210"><time>2020-05-30T16:27:06.003</time></trkpt><trkpt lat="56.2885790" lon="43.9754030"><time>2020-05-30T16:27:07.007</time></trkpt><trkpt lat="56.2884040" lon="43.9750500"><time>2020-05-30T16:27:09.010</time></trkpt><trkpt lat="56.2883540" lon="43.9749250"><time>2020-05-30T16:27:10.007</time></trkpt><trkpt lat="56.2881550" lon="43.9748100"><time>2020-05-30T16:27:11.003</time></trkpt><trkpt lat="56.2881720" lon="43.9747040"><time>2020-05-30T16:27:12.003</time></trkpt><trkpt lat="56.2882330" lon="43.9747090"><time>2020-05-30T16:27:13.003</time></trkpt><trkpt lat="56.2881080" lon="43.9744350"><time>2020-05-30T16:27:14.017</time></trkpt><trkpt lat="56.2883130" lon="43.9746110"><time>2020-05-30T16:27:15.020</time></trkpt><trkpt lat="56.2882440" lon="43.9746180"><time>2020-05-30T16:27:16.010</time></trkpt><trkpt lat="56.2883370" lon="43.9746060"><time>2020-05-30T16:27:17.010</time></trkpt><trkpt lat="56.2883540" lon="43.9743900"><time>2020-05-30T16:27:19.007</time></trkpt><trkpt lat="56.2882610" lon="43.9743830"><time>2020-05-30T16:27:20.007</time></trkpt><trkpt lat="56.2881970" lon="43.9742310"><time>2020-05-30T16:27:21.003</time></trkpt><trkpt lat="56.2881880" lon="43.9741350"><time>2020-05-30T16:27:22.003</time></trkpt><trkpt lat="56.2881970" lon="43.9740180"><time>2020-05-30T16:27:23.007</time></trkpt><trkpt lat="56.2881460" lon="43.9737190"><time>2020-05-30T16:27:24.003</time></trkpt><trkpt lat="56.2883250" lon="43.9737210"><time>2020-05-30T16:27:25.003</time></trkpt><trkpt lat="56.2882580" lon="43.9736560"><time>2020-05-30T16:27:26.007</time></trkpt><trkpt lat="56.2883040" lon="43.9738560"><time>2020-05-30T16:27:27.003</time></trkpt><trkpt lat="56.2882850" lon="43.9734650"><time>2020-05-30T16:27:29.353</time></trkpt><trkpt lat="56.2883220" lon="43.9733990"><time>2020-05-30T16:27:30.930</time></trkpt><trkpt lat="56.2883020" lon="43.9733250"><time>2020-05-30T16:27:31.003</time></trkpt><trkpt lat="56.2882110" lon="43.9734080"><time>2020-05-30T16:27:32.003</time></trkpt><trkpt lat="56.2882270" lon="43.9732760"><time>2020-05-30T16:27:33.003</time></trkpt><trkpt lat="56.2882820" lon="43.9731060"><time>2020-05-30T16:27:34.003</time></trkpt><trkpt lat="56.2883350" lon="43.9732730"><time>2020-05-30T16:27:35.003</time></trkpt><trkpt lat="56.2884130" lon="43.9732990"><time>2020-05-30T16:27:36.003</time></trkpt><trkpt lat="56.2883840" lon="43.9731900"><time>2020-05-30T16:27:37.003</time></trkpt><trkpt lat="56.2884430" lon="43.9731340"><time>2020-05-30T16:27:38.003</time></trkpt><trkpt lat="56.2883460" lon="43.9731410"><time>2020-05-30T16:27:39.003</time></trkpt><trkpt lat="56.2884340" lon="43.9731600"><time>2020-05-30T16:27:40.003</time></trkpt><trkpt lat="56.2885900" lon="43.9731800"><time>2020-05-30T16:27:41.003</time></trkpt><trkpt lat="56.2886890" lon="43.9730540"><time>2020-05-30T16:27:42.003</time></trkpt><trkpt lat="56.2886560" lon="43.9729510"><time>2020-05-30T16:27:43.010</time></trkpt><trkpt lat="56.2885350" lon="43.9730340"><time>2020-05-30T16:27:44.003</time></trkpt><trkpt lat="56.2885810" lon="43.9731650"><time>2020-05-30T16:27:45.003</time></trkpt><trkpt lat="56.2887060" lon="43.9731960"><time>2020-05-30T16:27:46.003</time></trkpt><trkpt lat="56.2886190" lon="43.9730790"><time>2020-05-30T16:27:47.003</time></trkpt><trkpt lat="56.2887380" lon="43.9728810"><time>2020-05-30T16:27:48.487</time></trkpt><trkpt lat="56.2887990" lon="43.9729080"><time>2020-05-30T16:27:49.003</time></trkpt><trkpt lat="56.2889780" lon="43.9726160"><time>2020-05-30T16:27:50.003</time></trkpt><trkpt lat="56.2888740" lon="43.9728570"><time>2020-05-30T16:27:52.003</time></trkpt><trkpt lat="56.2889600" lon="43.9728270"><time>2020-05-30T16:27:53.003</time></trkpt><trkpt lat="56.2889960" lon="43.9727440"><time>2020-05-30T16:27:54.003</time></trkpt><trkpt lat="56.2890620" lon="43.9725580"><time>2020-05-30T16:27:55.003</time></trkpt><trkpt lat="56.2890990" lon="43.9724820"><time>2020-05-30T16:27:57.003</time></trkpt><trkpt lat="56.2891220" lon="43.9725860"><time>2020-05-30T16:27:59.003</time></trkpt><trkpt lat="56.2892630" lon="43.9725220"><time>2020-05-30T16:28:00.003</time></trkpt><trkpt lat="56.2893430" lon="43.9727380"><time>2020-05-30T16:28:03.003</time></trkpt><trkpt lat="56.2892940" lon="43.9726860"><time>2020-05-30T16:28:04.003</time></trkpt><trkpt lat="56.2892230" lon="43.9727490"><time>2020-05-30T16:28:05.003</time></trkpt><trkpt lat="56.2893270" lon="43.9725330"><time>2020-05-30T16:28:06.003</time></trkpt><trkpt lat="56.2894110" lon="43.9726070"><time>2020-05-30T16:28:07.007</time></trkpt><trkpt lat="56.2893690" lon="43.9723820"><time>2020-05-30T16:28:10.003</time></trkpt><trkpt lat="56.2894580" lon="43.9724730"><time>2020-05-30T16:28:11.003</time></trkpt><trkpt lat="56.2895680" lon="43.9725630"><time>2020-05-30T16:28:13.007</time></trkpt><trkpt lat="56.2894720" lon="43.9725820"><time>2020-05-30T16:28:14.073</time></trkpt><trkpt lat="56.2895770" lon="43.9725060"><time>2020-05-30T16:28:15.003</time></trkpt><trkpt lat="56.2895620" lon="43.9724280"><time>2020-05-30T16:28:16.003</time></trkpt><trkpt lat="56.2895230" lon="43.9723550"><time>2020-05-30T16:28:17.003</time></trkpt><trkpt lat="56.2896440" lon="43.9724490"><time>2020-05-30T16:28:19.003</time></trkpt><trkpt lat="56.2897490" lon="43.9724110"><time>2020-05-30T16:28:20.007</time></trkpt><trkpt lat="56.2898730" lon="43.9722910"><time>2020-05-30T16:28:24.003</time></trkpt><trkpt lat="56.2898790" lon="43.9723760"><time>2020-05-30T16:28:25.003</time></trkpt><trkpt lat="56.2899660" lon="43.9723000"><time>2020-05-30T16:28:26.003</time></trkpt><trkpt lat="56.2901070" lon="43.9721860"><time>2020-05-30T16:28:28.007</time></trkpt><trkpt lat="56.2901530" lon="43.9721280"><time>2020-05-30T16:28:29.003</time></trkpt><trkpt lat="56.2901950" lon="43.9721760"><time>2020-05-30T16:28:30.007</time></trkpt><trkpt lat="56.2901550" lon="43.9720760"><time>2020-05-30T16:28:31.513</time></trkpt><trkpt lat="56.2902580" lon="43.9721590"><time>2020-05-30T16:28:32.003</time></trkpt><trkpt lat="56.2902410" lon="43.9722860"><time>2020-05-30T16:28:33.003</time></trkpt><trkpt lat="56.2901990" lon="43.9722110"><time>2020-05-30T16:28:34.003</time></trkpt><trkpt lat="56.2903150" lon="43.9722900"><time>2020-05-30T16:28:36.023</time></trkpt><trkpt lat="56.2902450" lon="43.9722120"><time>2020-05-30T16:28:37.003</time></trkpt><trkpt lat="56.2902070" lon="43.9722690"><time>2020-05-30T16:28:39.003</time></trkpt><trkpt lat="56.2902640" lon="43.9725630"><time>2020-05-30T16:28:40.003</time></trkpt><trkpt lat="56.2903530" lon="43.9724700"><time>2020-05-30T16:28:41.007</time></trkpt><trkpt lat="56.2904150" lon="43.9728510"><time>2020-05-30T16:28:42.003</time></trkpt><trkpt lat="56.2905210" lon="43.9727700"><time>2020-05-30T16:28:46.003</time></trkpt><trkpt lat="56.2905770" lon="43.9727260"><time>2020-05-30T16:28:47.003</time></trkpt><trkpt lat="56.2906380" lon="43.9728090"><time>2020-05-30T16:28:48.003</time></trkpt><trkpt lat="56.2906800" lon="43.9726240"><time>2020-05-30T16:28:49.003</time></trkpt><trkpt lat="56.2906150" lon="43.9726370"><time>2020-05-30T16:28:51.003</time></trkpt><trkpt lat="56.2906280" lon="43.9727310"><time>2020-05-30T16:28:52.003</time></trkpt><trkpt lat="56.2906670" lon="43.9728180"><time>2020-05-30T16:28:53.003</time></trkpt><trkpt lat="56.2907330" lon="43.9728800"><time>2020-05-30T16:28:54.003</time></trkpt><trkpt lat="56.2907890" lon="43.9725930"><time>2020-05-30T16:28:55.003</time></trkpt><trkpt lat="56.2908480" lon="43.9725380"><time>2020-05-30T16:28:57.930</time></trkpt><trkpt lat="56.2908940" lon="43.9724530"><time>2020-05-30T16:28:59.927</time></trkpt><trkpt lat="56.2908810" lon="43.9723690"><time>2020-05-30T16:29:00.927</time></trkpt><trkpt lat="56.2909540" lon="43.9723300"><time>2020-05-30T16:29:03.930</time></trkpt><trkpt lat="56.2910030" lon="43.9723470"><time>2020-05-30T16:29:05.927</time></trkpt><trkpt lat="56.2910580" lon="43.9723620"><time>2020-05-30T16:29:07.930</time></trkpt><trkpt lat="56.2911260" lon="43.9723900"><time>2020-05-30T16:29:09.930</time></trkpt><trkpt lat="56.2911880" lon="43.9724140"><time>2020-05-30T16:29:11.930</time></trkpt><trkpt lat="56.2912430" lon="43.9724470"><time>2020-05-30T16:29:14.927</time></trkpt><trkpt lat="56.2912880" lon="43.9724930"><time>2020-05-30T16:29:18.927</time></trkpt><trkpt lat="56.2913230" lon="43.9725430"><time>2020-05-30T16:29:22.930</time></trkpt><trkpt lat="56.2913380" lon="43.9726210"><time>2020-05-30T16:29:27.927</time></trkpt><trkpt lat="56.2914020" lon="43.9726570"><time>2020-05-30T16:29:30.927</time></trkpt><trkpt lat="56.2914550" lon="43.9726850"><time>2020-05-30T16:29:32.927</time></trkpt><trkpt lat="56.2915130" lon="43.9727050"><time>2020-05-30T16:29:35.927</time></trkpt><trkpt lat="56.2915720" lon="43.9727010"><time>2020-05-30T16:29:37.927</time></trkpt><trkpt lat="56.2916540" lon="43.9726940"><time>2020-05-30T16:29:39.927</time></trkpt><trkpt lat="56.2917000" lon="43.9727080"><time>2020-05-30T16:29:40.927</time></trkpt><trkpt lat="56.2917490" lon="43.9727220"><time>2020-05-30T16:29:41.927</time></trkpt><trkpt lat="56.2917940" lon="43.9727330"><time>2020-05-30T16:29:42.927</time></trkpt><trkpt lat="56.2918810" lon="43.9727270"><time>2020-05-30T16:29:44.927</time></trkpt><trkpt lat="56.2919410" lon="43.9727010"><time>2020-05-30T16:29:46.927</time></trkpt><trkpt lat="56.2920020" lon="43.9726920"><time>2020-05-30T16:29:48.927</time></trkpt><trkpt lat="56.2920760" lon="43.9727000"><time>2020-05-30T16:29:50.927</time></trkpt><trkpt lat="56.2921400" lon="43.9726780"><time>2020-05-30T16:29:52.927</time></trkpt><trkpt lat="56.2922180" lon="43.9726240"><time>2020-05-30T16:29:54.927</time></trkpt><trkpt lat="56.2922610" lon="43.9725920"><time>2020-05-30T16:29:55.930</time></trkpt><trkpt lat="56.2923240" lon="43.9725450"><time>2020-05-30T16:29:57.933</time></trkpt><trkpt lat="56.2923640" lon="43.9724660"><time>2020-05-30T16:29:59.927</time></trkpt><trkpt lat="56.2923980" lon="43.9723850"><time>2020-05-30T16:30:02.930</time></trkpt><trkpt lat="56.2924250" lon="43.9723020"><time>2020-05-30T16:30:05.930</time></trkpt><trkpt lat="56.2924520" lon="43.9722090"><time>2020-05-30T16:30:08.927</time></trkpt><trkpt lat="56.2924730" lon="43.9721330"><time>2020-05-30T16:30:10.927</time></trkpt><trkpt lat="56.2924880" lon="43.9720330"><time>2020-05-30T16:30:13.927</time></trkpt><trkpt lat="56.2924860" lon="43.9719310"><time>2020-05-30T16:30:16.930</time></trkpt><trkpt lat="56.2924840" lon="43.9718480"><time>2020-05-30T16:30:18.937</time></trkpt><trkpt lat="56.2924990" lon="43.9717610"><time>2020-05-30T16:30:21.927</time></trkpt><trkpt lat="56.2924870" lon="43.9716790"><time>2020-05-30T16:30:24.067</time></trkpt><trkpt lat="56.2924840" lon="43.9715830"><time>2020-05-30T16:30:25.930</time></trkpt><trkpt lat="56.2924650" lon="43.9714830"><time>2020-05-30T16:30:27.933</time></trkpt><trkpt lat="56.2924410" lon="43.9713830"><time>2020-05-30T16:30:29.927</time></trkpt><trkpt lat="56.2924490" lon="43.9712720"><time>2020-05-30T16:30:32.927</time></trkpt><trkpt lat="56.2924700" lon="43.9712000"><time>2020-05-30T16:30:34.927</time></trkpt><trkpt lat="56.2924940" lon="43.9711280"><time>2020-05-30T16:30:36.930</time></trkpt><trkpt lat="56.2925120" lon="43.9710490"><time>2020-05-30T16:30:39.927</time></trkpt><trkpt lat="56.2925800" lon="43.9710810"><time>2020-05-30T16:30:47.927</time></trkpt><trkpt lat="56.2926190" lon="43.9711460"><time>2020-05-30T16:30:49.930</time></trkpt><trkpt lat="56.2926710" lon="43.9711590"><time>2020-05-30T16:30:52.930</time></trkpt><trkpt lat="56.2927290" lon="43.9711790"><time>2020-05-30T16:30:55.930</time></trkpt><trkpt lat="56.2928110" lon="43.9712120"><time>2020-05-30T16:30:57.930</time></trkpt><trkpt lat="56.2928900" lon="43.9712190"><time>2020-05-30T16:30:59.930</time></trkpt><trkpt lat="56.2929640" lon="43.9712040"><time>2020-05-30T16:31:01.930</time></trkpt><trkpt lat="56.2930320" lon="43.9711810"><time>2020-05-30T16:31:03.927</time></trkpt><trkpt lat="56.2931010" lon="43.9711520"><time>2020-05-30T16:31:05.930</time></trkpt><trkpt lat="56.2931560" lon="43.9711270"><time>2020-05-30T16:31:07.927</time></trkpt><trkpt lat="56.2929900" lon="43.9709940"><time>2020-05-30T16:31:08.927</time></trkpt><trkpt lat="56.2930350" lon="43.9709620"><time>2020-05-30T16:31:10.927</time></trkpt><trkpt lat="56.2932550" lon="43.9708630"><time>2020-05-30T16:31:15.937</time></trkpt><trkpt lat="56.2933150" lon="43.9708810"><time>2020-05-30T16:31:18.927</time></trkpt><trkpt lat="56.2934990" lon="43.9711050"><time>2020-05-30T16:31:19.927</time></trkpt><trkpt lat="56.2935490" lon="43.9710630"><time>2020-05-30T16:31:24.933</time></trkpt><trkpt lat="56.2936050" lon="43.9710260"><time>2020-05-30T16:31:26.940</time></trkpt><trkpt lat="56.2936850" lon="43.9709980"><time>2020-05-30T16:31:28.933</time></trkpt><trkpt lat="56.2937510" lon="43.9709970"><time>2020-05-30T16:31:30.937</time></trkpt><trkpt lat="56.2939540" lon="43.9710260"><time>2020-05-30T16:31:31.940</time></trkpt><trkpt lat="56.2940130" lon="43.9710460"><time>2020-05-30T16:31:33.937</time></trkpt><trkpt lat="56.2940570" lon="43.9709970"><time>2020-05-30T16:31:35.937</time></trkpt><trkpt lat="56.2940860" lon="43.9709350"><time>2020-05-30T16:31:37.947</time></trkpt><trkpt lat="56.2941280" lon="43.9708580"><time>2020-05-30T16:31:39.943</time></trkpt><trkpt lat="56.2941820" lon="43.9708050"><time>2020-05-30T16:31:41.933</time></trkpt><trkpt lat="56.2942420" lon="43.9707860"><time>2020-05-30T16:31:43.937</time></trkpt><trkpt lat="56.2943090" lon="43.9707490"><time>2020-05-30T16:31:45.933</time></trkpt><trkpt lat="56.2943780" lon="43.9706980"><time>2020-05-30T16:31:47.933</time></trkpt><trkpt lat="56.2944430" lon="43.9706530"><time>2020-05-30T16:31:49.933</time></trkpt><trkpt lat="56.2945140" lon="43.9706070"><time>2020-05-30T16:31:51.930</time></trkpt><trkpt lat="56.2945850" lon="43.9705480"><time>2020-05-30T16:31:53.933</time></trkpt><trkpt lat="56.2946640" lon="43.9705030"><time>2020-05-30T16:31:55.937</time></trkpt><trkpt lat="56.2947460" lon="43.9704650"><time>2020-05-30T16:31:57.950</time></trkpt><trkpt lat="56.2948120" lon="43.9704140"><time>2020-05-30T16:31:59.937</time></trkpt><trkpt lat="56.2948690" lon="43.9703730"><time>2020-05-30T16:32:01.937</time></trkpt><trkpt lat="56.2949320" lon="43.9703360"><time>2020-05-30T16:32:03.933</time></trkpt><trkpt lat="56.2949920" lon="43.9703290"><time>2020-05-30T16:32:06.933</time></trkpt><trkpt lat="56.2950570" lon="43.9703260"><time>2020-05-30T16:32:08.933</time></trkpt><trkpt lat="56.2951240" lon="43.9703360"><time>2020-05-30T16:32:10.930</time></trkpt><trkpt lat="56.2951880" lon="43.9703510"><time>2020-05-30T16:32:12.937</time></trkpt><trkpt lat="56.2952150" lon="43.9703690"><time>2020-05-30T16:32:16.753</time></trkpt><trkpt lat="56.2952330" lon="43.9704060"><time>2020-05-30T16:32:20.930</time></trkpt><trkpt lat="56.2952960" lon="43.9704820"><time>2020-05-30T16:32:25.167</time></trkpt><trkpt lat="56.2953400" lon="43.9705040"><time>2020-05-30T16:32:28.927</time></trkpt><trkpt lat="56.2953960" lon="43.9705790"><time>2020-05-30T16:32:31.927</time></trkpt><trkpt lat="56.2954240" lon="43.9706450"><time>2020-05-30T16:32:33.923</time></trkpt><trkpt lat="56.2954540" lon="43.9707490"><time>2020-05-30T16:32:35.930</time></trkpt><trkpt lat="56.2954830" lon="43.9708450"><time>2020-05-30T16:32:37.923</time></trkpt><trkpt lat="56.2955120" lon="43.9709170"><time>2020-05-30T16:32:39.930</time></trkpt><trkpt lat="56.2955550" lon="43.9710260"><time>2020-05-30T16:32:41.923</time></trkpt><trkpt lat="56.2955730" lon="43.9711090"><time>2020-05-30T16:32:44.927</time></trkpt><trkpt lat="56.2956200" lon="43.9711240"><time>2020-05-30T16:32:47.923</time></trkpt><trkpt lat="56.2956730" lon="43.9711290"><time>2020-05-30T16:32:49.923</time></trkpt><trkpt lat="56.2957310" lon="43.9711490"><time>2020-05-30T16:32:51.927</time></trkpt><trkpt lat="56.2957870" lon="43.9711980"><time>2020-05-30T16:32:53.930</time></trkpt><trkpt lat="56.2958330" lon="43.9712480"><time>2020-05-30T16:32:55.933</time></trkpt><trkpt lat="56.2958760" lon="43.9712850"><time>2020-05-30T16:32:57.927</time></trkpt><trkpt lat="56.2959270" lon="43.9713110"><time>2020-05-30T16:33:01.927</time></trkpt><trkpt lat="56.2959650" lon="43.9712390"><time>2020-05-30T16:33:06.927</time></trkpt><trkpt lat="56.2960160" lon="43.9711990"><time>2020-05-30T16:33:09.927</time></trkpt><trkpt lat="56.2960680" lon="43.9712000"><time>2020-05-30T16:33:11.927</time></trkpt><trkpt lat="56.2961200" lon="43.9712060"><time>2020-05-30T16:33:13.927</time></trkpt><trkpt lat="56.2961750" lon="43.9712490"><time>2020-05-30T16:33:15.923</time></trkpt><trkpt lat="56.2962150" lon="43.9712880"><time>2020-05-30T16:33:17.923</time></trkpt><trkpt lat="56.2962920" lon="43.9713200"><time>2020-05-30T16:33:19.933</time></trkpt><trkpt lat="56.2963600" lon="43.9713470"><time>2020-05-30T16:33:21.930</time></trkpt><trkpt lat="56.2964110" lon="43.9713640"><time>2020-05-30T16:33:25.927</time></trkpt><trkpt lat="56.2964580" lon="43.9713470"><time>2020-05-30T16:33:33.930</time></trkpt><trkpt lat="56.2965020" lon="43.9713250"><time>2020-05-30T16:33:35.930</time></trkpt><trkpt lat="56.2965490" lon="43.9713070"><time>2020-05-30T16:33:37.933</time></trkpt><trkpt lat="56.2965980" lon="43.9712900"><time>2020-05-30T16:33:39.930</time></trkpt><trkpt lat="56.2966460" lon="43.9712900"><time>2020-05-30T16:33:41.930</time></trkpt><trkpt lat="56.2967030" lon="43.9712980"><time>2020-05-30T16:33:44.937</time></trkpt><trkpt lat="56.2967650" lon="43.9713120"><time>2020-05-30T16:33:47.930</time></trkpt><trkpt lat="56.2968380" lon="43.9713060"><time>2020-05-30T16:33:50.927</time></trkpt><trkpt lat="56.2969050" lon="43.9712930"><time>2020-05-30T16:33:52.927</time></trkpt><trkpt lat="56.2969780" lon="43.9712850"><time>2020-05-30T16:33:54.927</time></trkpt><trkpt lat="56.2970290" lon="43.9712940"><time>2020-05-30T16:33:56.930</time></trkpt><trkpt lat="56.2970680" lon="43.9713430"><time>2020-05-30T16:34:00.933</time></trkpt><trkpt lat="56.2971060" lon="43.9714240"><time>2020-05-30T16:34:03.927</time></trkpt><trkpt lat="56.2971230" lon="43.9715070"><time>2020-05-30T16:34:05.927</time></trkpt><trkpt lat="56.2971290" lon="43.9716120"><time>2020-05-30T16:34:09.923</time></trkpt><trkpt lat="56.2971140" lon="43.9717210"><time>2020-05-30T16:34:13.923</time></trkpt><trkpt lat="56.2971060" lon="43.9718290"><time>2020-05-30T16:34:16.923</time></trkpt><trkpt lat="56.2971090" lon="43.9719110"><time>2020-05-30T16:34:18.923</time></trkpt><trkpt lat="56.2971230" lon="43.9720040"><time>2020-05-30T16:34:20.923</time></trkpt><trkpt lat="56.2971060" lon="43.9721150"><time>2020-05-30T16:34:23.937</time></trkpt><trkpt lat="56.2970830" lon="43.9722000"><time>2020-05-30T16:34:25.927</time></trkpt><trkpt lat="56.2970680" lon="43.9722850"><time>2020-05-30T16:34:27.927</time></trkpt><trkpt lat="56.2970590" lon="43.9723880"><time>2020-05-30T16:34:30.930</time></trkpt><trkpt lat="56.2970760" lon="43.9725060"><time>2020-05-30T16:34:33.920</time></trkpt><trkpt lat="56.2970840" lon="43.9725920"><time>2020-05-30T16:34:34.930</time></trkpt><trkpt lat="56.2971060" lon="43.9727720"><time>2020-05-30T16:34:37.290</time></trkpt><trkpt lat="56.2971310" lon="43.9729010"><time>2020-05-30T16:34:38.927</time></trkpt><trkpt lat="56.2971570" lon="43.9729710"><time>2020-05-30T16:34:40.927</time></trkpt><trkpt lat="56.2971630" lon="43.9730710"><time>2020-05-30T16:34:43.927</time></trkpt><trkpt lat="56.2971440" lon="43.9731480"><time>2020-05-30T16:34:45.923</time></trkpt><trkpt lat="56.2970920" lon="43.9732460"><time>2020-05-30T16:34:47.927</time></trkpt><trkpt lat="56.2970190" lon="43.9733390"><time>2020-05-30T16:34:49.927</time></trkpt><trkpt lat="56.2969430" lon="43.9734100"><time>2020-05-30T16:34:51.927</time></trkpt><trkpt lat="56.2968680" lon="43.9734640"><time>2020-05-30T16:34:53.927</time></trkpt><trkpt lat="56.2968040" lon="43.9734990"><time>2020-05-30T16:34:56.813</time></trkpt><trkpt lat="56.2967380" lon="43.9735350"><time>2020-05-30T16:34:57.967</time></trkpt><trkpt lat="56.2966710" lon="43.9735620"><time>2020-05-30T16:34:59.927</time></trkpt><trkpt lat="56.2966170" lon="43.9735800"><time>2020-05-30T16:35:01.927</time></trkpt><trkpt lat="56.2965640" lon="43.9736000"><time>2020-05-30T16:35:03.923</time></trkpt><trkpt lat="56.2965040" lon="43.9736250"><time>2020-05-30T16:35:05.923</time></trkpt><trkpt lat="56.2964530" lon="43.9736680"><time>2020-05-30T16:35:07.923</time></trkpt><trkpt lat="56.2964240" lon="43.9737680"><time>2020-05-30T16:35:10.923</time></trkpt><trkpt lat="56.2964230" lon="43.9738590"><time>2020-05-30T16:35:13.920</time></trkpt><trkpt lat="56.2964110" lon="43.9739410"><time>2020-05-30T16:35:15.923</time></trkpt><trkpt lat="56.2964020" lon="43.9740260"><time>2020-05-30T16:35:17.923</time></trkpt><trkpt lat="56.2963930" lon="43.9741530"><time>2020-05-30T16:35:21.923</time></trkpt><trkpt lat="56.2964030" lon="43.9742950"><time>2020-05-30T16:35:23.923</time></trkpt><trkpt lat="56.2963990" lon="43.9744230"><time>2020-05-30T16:35:25.923</time></trkpt><trkpt lat="56.2963890" lon="43.9745130"><time>2020-05-30T16:35:27.923</time></trkpt><trkpt lat="56.2964080" lon="43.9746170"><time>2020-05-30T16:35:30.923</time></trkpt><trkpt lat="56.2964440" lon="43.9746790"><time>2020-05-30T16:35:32.923</time></trkpt><trkpt lat="56.2965030" lon="43.9747530"><time>2020-05-30T16:35:35.923</time></trkpt><trkpt lat="56.2965640" lon="43.9748000"><time>2020-05-30T16:35:37.927</time></trkpt><trkpt lat="56.2966120" lon="43.9748730"><time>2020-05-30T16:35:39.927</time></trkpt><trkpt lat="56.2966550" lon="43.9749310"><time>2020-05-30T16:35:41.923</time></trkpt><trkpt lat="56.2967040" lon="43.9749710"><time>2020-05-30T16:35:43.927</time></trkpt><trkpt lat="56.2967420" lon="43.9750410"><time>2020-05-30T16:35:45.927</time></trkpt><trkpt lat="56.2967750" lon="43.9751060"><time>2020-05-30T16:35:47.927</time></trkpt><trkpt lat="56.2968160" lon="43.9752070"><time>2020-05-30T16:35:52.927</time></trkpt><trkpt lat="56.2968370" lon="43.9753230"><time>2020-05-30T16:35:54.930</time></trkpt><trkpt lat="56.2968710" lon="43.9754390"><time>2020-05-30T16:35:56.927</time></trkpt><trkpt lat="56.2968910" lon="43.9755210"><time>2020-05-30T16:35:58.927</time></trkpt><trkpt lat="56.2969060" lon="43.9756140"><time>2020-05-30T16:36:00.927</time></trkpt><trkpt lat="56.2969310" lon="43.9756950"><time>2020-05-30T16:36:02.927</time></trkpt><trkpt lat="56.2969730" lon="43.9757980"><time>2020-05-30T16:36:04.927</time></trkpt><trkpt lat="56.2969960" lon="43.9758720"><time>2020-05-30T16:36:05.930</time></trkpt><trkpt lat="56.2970220" lon="43.9759440"><time>2020-05-30T16:36:06.927</time></trkpt><trkpt lat="56.2970470" lon="43.9760300"><time>2020-05-30T16:36:07.927</time></trkpt><trkpt lat="56.2970640" lon="43.9761080"><time>2020-05-30T16:36:08.927</time></trkpt><trkpt lat="56.2970740" lon="43.9761870"><time>2020-05-30T16:36:09.923</time></trkpt><trkpt lat="56.2970950" lon="43.9763260"><time>2020-05-30T16:36:11.927</time></trkpt><trkpt lat="56.2971240" lon="43.9764460"><time>2020-05-30T16:36:13.927</time></trkpt><trkpt lat="56.2971590" lon="43.9765430"><time>2020-05-30T16:36:15.927</time></trkpt><trkpt lat="56.2971940" lon="43.9766270"><time>2020-05-30T16:36:17.927</time></trkpt><trkpt lat="56.2972200" lon="43.9767550"><time>2020-05-30T16:36:19.930</time></trkpt><trkpt lat="56.2972320" lon="43.9768570"><time>2020-05-30T16:36:20.933</time></trkpt><trkpt lat="56.2972430" lon="43.9769480"><time>2020-05-30T16:36:21.933</time></trkpt><trkpt lat="56.2972600" lon="43.9770270"><time>2020-05-30T16:36:22.937</time></trkpt><trkpt lat="56.2972930" lon="43.9771440"><time>2020-05-30T16:36:24.980</time></trkpt><trkpt lat="56.2973300" lon="43.9772370"><time>2020-05-30T16:36:26.937</time></trkpt><trkpt lat="56.2973720" lon="43.9772900"><time>2020-05-30T16:36:28.933</time></trkpt><trkpt lat="56.2974230" lon="43.9773520"><time>2020-05-30T16:36:31.010</time></trkpt><trkpt lat="56.2974800" lon="43.9774040"><time>2020-05-30T16:36:32.933</time></trkpt><trkpt lat="56.2975370" lon="43.9774090"><time>2020-05-30T16:36:34.937</time></trkpt><trkpt lat="56.2975740" lon="43.9773150"><time>2020-05-30T16:36:36.933</time></trkpt><trkpt lat="56.2975810" lon="43.9772180"><time>2020-05-30T16:36:38.937</time></trkpt><trkpt lat="56.2975930" lon="43.9771020"><time>2020-05-30T16:36:41.930</time></trkpt><trkpt lat="56.2976190" lon="43.9769920"><time>2020-05-30T16:36:43.930</time></trkpt><trkpt lat="56.2976490" lon="43.9768970"><time>2020-05-30T16:36:45.930</time></trkpt><trkpt lat="56.2976660" lon="43.9767750"><time>2020-05-30T16:36:48.930</time></trkpt><trkpt lat="56.2976760" lon="43.9766660"><time>2020-05-30T16:36:50.930</time></trkpt><trkpt lat="56.2976810" lon="43.9765620"><time>2020-05-30T16:36:52.927</time></trkpt><trkpt lat="56.2976940" lon="43.9764500"><time>2020-05-30T16:36:54.930</time></trkpt><trkpt lat="56.2977130" lon="43.9763480"><time>2020-05-30T16:36:56.933</time></trkpt><trkpt lat="56.2977150" lon="43.9762610"><time>2020-05-30T16:36:58.930</time></trkpt><trkpt lat="56.2977130" lon="43.9761690"><time>2020-05-30T16:37:00.927</time></trkpt><trkpt lat="56.2977160" lon="43.9761430"><time>2020-05-30T16:37:03.463</time></trkpt><trkpt lat="56.2977520" lon="43.9761290"><time>2020-05-30T16:37:06.020</time></trkpt><trkpt lat="56.2977590" lon="43.9760440"><time>2020-05-30T16:37:09.927</time></trkpt><trkpt lat="56.2977290" lon="43.9759640"><time>2020-05-30T16:37:11.927</time></trkpt><trkpt lat="56.2976940" lon="43.9758540"><time>2020-05-30T16:37:13.927</time></trkpt><trkpt lat="56.2976820" lon="43.9756680"><time>2020-05-30T16:37:14.927</time></trkpt><trkpt lat="56.2976490" lon="43.9755830"><time>2020-05-30T16:37:15.927</time></trkpt><trkpt lat="56.2976040" lon="43.9754430"><time>2020-05-30T16:37:16.927</time></trkpt><trkpt lat="56.2976010" lon="43.9753500"><time>2020-05-30T16:37:17.923</time></trkpt><trkpt lat="56.2976130" lon="43.9752190"><time>2020-05-30T16:37:18.923</time></trkpt><trkpt lat="56.2976260" lon="43.9750740"><time>2020-05-30T16:37:19.923</time></trkpt><trkpt lat="56.2976160" lon="43.9749420"><time>2020-05-30T16:37:20.920</time></trkpt><trkpt lat="56.2976370" lon="43.9748540"><time>2020-05-30T16:37:21.920</time></trkpt><trkpt lat="56.2976350" lon="43.9747220"><time>2020-05-30T16:37:22.927</time></trkpt><trkpt lat="56.2976390" lon="43.9745160"><time>2020-05-30T16:37:23.923</time></trkpt><trkpt lat="56.2975150" lon="43.9744150"><time>2020-05-30T16:37:24.923</time></trkpt><trkpt lat="56.2975370" lon="43.9742620"><time>2020-05-30T16:37:25.923</time></trkpt><trkpt lat="56.2975970" lon="43.9742390"><time>2020-05-30T16:37:26.923</time></trkpt><trkpt lat="56.2976100" lon="43.9741480"><time>2020-05-30T16:37:27.923</time></trkpt><trkpt lat="56.2976550" lon="43.9741700"><time>2020-05-30T16:37:28.923</time></trkpt><trkpt lat="56.2977450" lon="43.9746530"><time>2020-05-30T16:37:30.247</time></trkpt><trkpt lat="56.2977920" lon="43.9747220"><time>2020-05-30T16:37:33.923</time></trkpt><trkpt lat="56.2978350" lon="43.9746480"><time>2020-05-30T16:37:35.923</time></trkpt><trkpt lat="56.2978920" lon="43.9746150"><time>2020-05-30T16:37:36.923</time></trkpt><trkpt lat="56.2979260" lon="43.9745100"><time>2020-05-30T16:37:38.923</time></trkpt><trkpt lat="56.2979750" lon="43.9744950"><time>2020-05-30T16:37:39.923</time></trkpt><trkpt lat="56.2980340" lon="43.9744660"><time>2020-05-30T16:37:41.920</time></trkpt><trkpt lat="56.2980610" lon="43.9743950"><time>2020-05-30T16:37:44.920</time></trkpt><trkpt lat="56.2978390" lon="43.9742030"><time>2020-05-30T16:37:47.923</time></trkpt><trkpt lat="56.2977930" lon="43.9741380"><time>2020-05-30T16:37:49.923</time></trkpt><trkpt lat="56.2977470" lon="43.9740630"><time>2020-05-30T16:37:51.923</time></trkpt><trkpt lat="56.2977130" lon="43.9739950"><time>2020-05-30T16:37:53.923</time></trkpt><trkpt lat="56.2976900" lon="43.9739070"><time>2020-05-30T16:37:55.920</time></trkpt><trkpt lat="56.2976790" lon="43.9737850"><time>2020-05-30T16:37:57.927</time></trkpt><trkpt lat="56.2976700" lon="43.9736840"><time>2020-05-30T16:37:59.920</time></trkpt><trkpt lat="56.2979000" lon="43.9736060"><time>2020-05-30T16:38:02.920</time></trkpt><trkpt lat="56.2979430" lon="43.9735360"><time>2020-05-30T16:38:04.923</time></trkpt><trkpt lat="56.2979860" lon="43.9734550"><time>2020-05-30T16:38:06.927</time></trkpt><trkpt lat="56.2980140" lon="43.9733770"><time>2020-05-30T16:38:08.923</time></trkpt><trkpt lat="56.2980310" lon="43.9732660"><time>2020-05-30T16:38:10.923</time></trkpt><trkpt lat="56.2980410" lon="43.9731400"><time>2020-05-30T16:38:12.923</time></trkpt><trkpt lat="56.2980390" lon="43.9730000"><time>2020-05-30T16:38:14.923</time></trkpt><trkpt lat="56.2980440" lon="43.9728780"><time>2020-05-30T16:38:16.923</time></trkpt><trkpt lat="56.2980560" lon="43.9727460"><time>2020-05-30T16:38:18.937</time></trkpt><trkpt lat="56.2980830" lon="43.9726220"><time>2020-05-30T16:38:20.927</time></trkpt><trkpt lat="56.2981560" lon="43.9725440"><time>2020-05-30T16:38:22.923</time></trkpt><trkpt lat="56.2981990" lon="43.9724920"><time>2020-05-30T16:38:23.927</time></trkpt><trkpt lat="56.2982390" lon="43.9724380"><time>2020-05-30T16:38:24.923</time></trkpt><trkpt lat="56.2982730" lon="43.9723820"><time>2020-05-30T16:38:25.927</time></trkpt><trkpt lat="56.2983250" lon="43.9722800"><time>2020-05-30T16:38:27.923</time></trkpt><trkpt lat="56.2983470" lon="43.9721620"><time>2020-05-30T16:38:31.927</time></trkpt><trkpt lat="56.2983530" lon="43.9720280"><time>2020-05-30T16:38:33.927</time></trkpt><trkpt lat="56.2983570" lon="43.9718930"><time>2020-05-30T16:38:35.927</time></trkpt><trkpt lat="56.2983590" lon="43.9717910"><time>2020-05-30T16:38:37.930</time></trkpt><trkpt lat="56.2983630" lon="43.9716580"><time>2020-05-30T16:38:39.930</time></trkpt><trkpt lat="56.2983650" lon="43.9715300"><time>2020-05-30T16:38:41.950</time></trkpt><trkpt lat="56.2983810" lon="43.9714520"><time>2020-05-30T16:38:43.933</time></trkpt><trkpt lat="56.2984040" lon="43.9713810"><time>2020-05-30T16:38:46.923</time></trkpt><trkpt lat="56.2984230" lon="43.9712920"><time>2020-05-30T16:38:48.923</time></trkpt><trkpt lat="56.2984480" lon="43.9712100"><time>2020-05-30T16:38:50.930</time></trkpt><trkpt lat="56.2984930" lon="43.9711440"><time>2020-05-30T16:38:53.923</time></trkpt><trkpt lat="56.2985020" lon="43.9710490"><time>2020-05-30T16:38:57.923</time></trkpt><trkpt lat="56.2985360" lon="43.9709680"><time>2020-05-30T16:39:00.920</time></trkpt><trkpt lat="56.2985650" lon="43.9708920"><time>2020-05-30T16:39:02.927</time></trkpt><trkpt lat="56.2985730" lon="43.9708040"><time>2020-05-30T16:39:05.927</time></trkpt><trkpt lat="56.2985640" lon="43.9707010"><time>2020-05-30T16:39:07.927</time></trkpt><trkpt lat="56.2985550" lon="43.9705800"><time>2020-05-30T16:39:09.930</time></trkpt><trkpt lat="56.2985620" lon="43.9704560"><time>2020-05-30T16:39:11.923</time></trkpt><trkpt lat="56.2986150" lon="43.9703400"><time>2020-05-30T16:39:13.930</time></trkpt><trkpt lat="56.2986400" lon="43.9702680"><time>2020-05-30T16:39:14.923</time></trkpt><trkpt lat="56.2986770" lon="43.9701340"><time>2020-05-30T16:39:16.923</time></trkpt><trkpt lat="56.2987020" lon="43.9700010"><time>2020-05-30T16:39:18.920</time></trkpt><trkpt lat="56.2987330" lon="43.9699090"><time>2020-05-30T16:39:20.920</time></trkpt><trkpt lat="56.2987980" lon="43.9698420"><time>2020-05-30T16:39:22.923</time></trkpt><trkpt lat="56.2988640" lon="43.9697760"><time>2020-05-30T16:39:24.923</time></trkpt><trkpt lat="56.2989110" lon="43.9697120"><time>2020-05-30T16:39:26.923</time></trkpt><trkpt lat="56.2989460" lon="43.9696060"><time>2020-05-30T16:39:29.923</time></trkpt><trkpt lat="56.2986350" lon="43.9692300"><time>2020-05-30T16:39:31.923</time></trkpt><trkpt lat="56.2986320" lon="43.9691430"><time>2020-05-30T16:39:32.927</time></trkpt><trkpt lat="56.2986230" lon="43.9690610"><time>2020-05-30T16:39:33.927</time></trkpt><trkpt lat="56.2985910" lon="43.9689350"><time>2020-05-30T16:39:35.933</time></trkpt><trkpt lat="56.2985620" lon="43.9688400"><time>2020-05-30T16:39:38.927</time></trkpt><trkpt lat="56.2985250" lon="43.9687810"><time>2020-05-30T16:39:41.923</time></trkpt><trkpt lat="56.2984740" lon="43.9687310"><time>2020-05-30T16:39:45.923</time></trkpt><trkpt lat="56.2984200" lon="43.9686520"><time>2020-05-30T16:39:48.927</time></trkpt><trkpt lat="56.2983860" lon="43.9685950"><time>2020-05-30T16:39:50.927</time></trkpt><trkpt lat="56.2983430" lon="43.9685370"><time>2020-05-30T16:39:52.923</time></trkpt><trkpt lat="56.2982900" lon="43.9684580"><time>2020-05-30T16:39:55.927</time></trkpt><trkpt lat="56.2982500" lon="43.9683740"><time>2020-05-30T16:39:57.930</time></trkpt><trkpt lat="56.2982130" lon="43.9682680"><time>2020-05-30T16:39:58.933</time></trkpt><trkpt lat="56.2982050" lon="43.9681810"><time>2020-05-30T16:40:02.927</time></trkpt><trkpt lat="56.2981720" lon="43.9681160"><time>2020-05-30T16:40:04.927</time></trkpt><trkpt lat="56.2981180" lon="43.9680980"><time>2020-05-30T16:40:06.927</time></trkpt><trkpt lat="56.2980770" lon="43.9680560"><time>2020-05-30T16:40:10.937</time></trkpt><trkpt lat="56.2980490" lon="43.9679560"><time>2020-05-30T16:40:13.927</time></trkpt><trkpt lat="56.2980690" lon="43.9679080"><time>2020-05-30T16:40:24.430</time></trkpt><trkpt lat="56.2980410" lon="43.9678540"><time>2020-05-30T16:40:30.927</time></trkpt><trkpt lat="56.2980450" lon="43.9677500"><time>2020-05-30T16:40:32.923</time></trkpt><trkpt lat="56.2980380" lon="43.9676200"><time>2020-05-30T16:40:34.927</time></trkpt><trkpt lat="56.2980140" lon="43.9674970"><time>2020-05-30T16:40:36.927</time></trkpt><trkpt lat="56.2979720" lon="43.9674140"><time>2020-05-30T16:40:38.927</time></trkpt><trkpt lat="56.2979060" lon="43.9673650"><time>2020-05-30T16:40:40.937</time></trkpt><trkpt lat="56.2978420" lon="43.9673460"><time>2020-05-30T16:40:42.950</time></trkpt><trkpt lat="56.2977760" lon="43.9673410"><time>2020-05-30T16:40:44.927</time></trkpt><trkpt lat="56.2977050" lon="43.9673310"><time>2020-05-30T16:40:46.930</time></trkpt><trkpt lat="56.2976180" lon="43.9673180"><time>2020-05-30T16:40:48.927</time></trkpt><trkpt lat="56.2975590" lon="43.9673240"><time>2020-05-30T16:40:50.927</time></trkpt><trkpt lat="56.2975060" lon="43.9673280"><time>2020-05-30T16:40:52.927</time></trkpt><trkpt lat="56.2974400" lon="43.9673230"><time>2020-05-30T16:40:54.923</time></trkpt><trkpt lat="56.2973640" lon="43.9673070"><time>2020-05-30T16:40:56.930</time></trkpt><trkpt lat="56.2972840" lon="43.9672830"><time>2020-05-30T16:40:58.927</time></trkpt><trkpt lat="56.2972390" lon="43.9672990"><time>2020-05-30T16:40:59.933</time></trkpt><trkpt lat="56.2971180" lon="43.9673630"><time>2020-05-30T16:41:00.927</time></trkpt><trkpt lat="56.2970750" lon="43.9673920"><time>2020-05-30T16:41:02.923</time></trkpt><trkpt lat="56.2970090" lon="43.9673720"><time>2020-05-30T16:41:04.927</time></trkpt><trkpt lat="56.2969520" lon="43.9673560"><time>2020-05-30T16:41:07.927</time></trkpt><trkpt lat="56.2968970" lon="43.9673050"><time>2020-05-30T16:41:09.923</time></trkpt><trkpt lat="56.2968420" lon="43.9672620"><time>2020-05-30T16:41:11.930</time></trkpt><trkpt lat="56.2967770" lon="43.9672180"><time>2020-05-30T16:41:13.930</time></trkpt><trkpt lat="56.2967230" lon="43.9672230"><time>2020-05-30T16:41:15.933</time></trkpt><trkpt lat="56.2966640" lon="43.9671610"><time>2020-05-30T16:41:18.927</time></trkpt><trkpt lat="56.2966330" lon="43.9670890"><time>2020-05-30T16:41:20.930</time></trkpt><trkpt lat="56.2965850" lon="43.9670670"><time>2020-05-30T16:41:22.930</time></trkpt><trkpt lat="56.2965080" lon="43.9670570"><time>2020-05-30T16:41:24.930</time></trkpt><trkpt lat="56.2964560" lon="43.9670590"><time>2020-05-30T16:41:25.930</time></trkpt><trkpt lat="56.2964020" lon="43.9670660"><time>2020-05-30T16:41:26.927</time></trkpt><trkpt lat="56.2963480" lon="43.9670710"><time>2020-05-30T16:41:27.927</time></trkpt><trkpt lat="56.2963010" lon="43.9670820"><time>2020-05-30T16:41:28.923</time></trkpt><trkpt lat="56.2962230" lon="43.9670820"><time>2020-05-30T16:41:30.927</time></trkpt><trkpt lat="56.2961610" lon="43.9670860"><time>2020-05-30T16:41:32.923</time></trkpt><trkpt lat="56.2961050" lon="43.9671240"><time>2020-05-30T16:41:34.923</time></trkpt><trkpt lat="56.2960480" lon="43.9671900"><time>2020-05-30T16:41:36.927</time></trkpt><trkpt lat="56.2959970" lon="43.9672410"><time>2020-05-30T16:41:38.927</time></trkpt><trkpt lat="56.2959530" lon="43.9672840"><time>2020-05-30T16:41:40.923</time></trkpt><trkpt lat="56.2959080" lon="43.9673130"><time>2020-05-30T16:41:42.923</time></trkpt><trkpt lat="56.2958450" lon="43.9673470"><time>2020-05-30T16:41:44.923</time></trkpt><trkpt lat="56.2957920" lon="43.9673660"><time>2020-05-30T16:41:46.927</time></trkpt><trkpt lat="56.2957390" lon="43.9673830"><time>2020-05-30T16:41:48.923</time></trkpt><trkpt lat="56.2956930" lon="43.9674010"><time>2020-05-30T16:41:50.923</time></trkpt><trkpt lat="56.2956480" lon="43.9674340"><time>2020-05-30T16:41:52.923</time></trkpt><trkpt lat="56.2956050" lon="43.9674660"><time>2020-05-30T16:41:54.923</time></trkpt><trkpt lat="56.2955620" lon="43.9674920"><time>2020-05-30T16:41:56.923</time></trkpt><trkpt lat="56.2955060" lon="43.9675440"><time>2020-05-30T16:41:59.920</time></trkpt><trkpt lat="56.2954580" lon="43.9675750"><time>2020-05-30T16:42:01.923</time></trkpt><trkpt lat="56.2954060" lon="43.9675980"><time>2020-05-30T16:42:04.920</time></trkpt><trkpt lat="56.2953570" lon="43.9676080"><time>2020-05-30T16:42:07.923</time></trkpt><trkpt lat="56.2953070" lon="43.9676560"><time>2020-05-30T16:42:09.923</time></trkpt><trkpt lat="56.2952630" lon="43.9676980"><time>2020-05-30T16:42:11.923</time></trkpt><trkpt lat="56.2951980" lon="43.9677090"><time>2020-05-30T16:42:14.927</time></trkpt><trkpt lat="56.2951510" lon="43.9677200"><time>2020-05-30T16:42:16.923</time></trkpt><trkpt lat="56.2950990" lon="43.9677440"><time>2020-05-30T16:42:18.927</time></trkpt><trkpt lat="56.2950310" lon="43.9677800"><time>2020-05-30T16:42:21.923</time></trkpt><trkpt lat="56.2949740" lon="43.9677940"><time>2020-05-30T16:42:23.923</time></trkpt><trkpt lat="56.2949220" lon="43.9677950"><time>2020-05-30T16:42:25.927</time></trkpt><trkpt lat="56.2948740" lon="43.9678120"><time>2020-05-30T16:42:27.927</time></trkpt><trkpt lat="56.2948130" lon="43.9678430"><time>2020-05-30T16:42:30.927</time></trkpt><trkpt lat="56.2947560" lon="43.9678490"><time>2020-05-30T16:42:32.923</time></trkpt><trkpt lat="56.2946990" lon="43.9678520"><time>2020-05-30T16:42:35.923</time></trkpt><trkpt lat="56.2946540" lon="43.9678640"><time>2020-05-30T16:42:37.923</time></trkpt><trkpt lat="56.2946000" lon="43.9678800"><time>2020-05-30T16:42:39.923</time></trkpt><trkpt lat="56.2945440" lon="43.9678920"><time>2020-05-30T16:42:41.923</time></trkpt><trkpt lat="56.2944800" lon="43.9678920"><time>2020-05-30T16:42:43.923</time></trkpt><trkpt lat="56.2944230" lon="43.9679000"><time>2020-05-30T16:42:45.923</time></trkpt><trkpt lat="56.2943630" lon="43.9679230"><time>2020-05-30T16:42:47.927</time></trkpt><trkpt lat="56.2943010" lon="43.9679420"><time>2020-05-30T16:42:49.927</time></trkpt><trkpt lat="56.2942450" lon="43.9679660"><time>2020-05-30T16:42:51.927</time></trkpt><trkpt lat="56.2941980" lon="43.9679810"><time>2020-05-30T16:42:53.923</time></trkpt><trkpt lat="56.2941500" lon="43.9679950"><time>2020-05-30T16:42:55.923</time></trkpt><trkpt lat="56.2940910" lon="43.9680210"><time>2020-05-30T16:42:57.923</time></trkpt><trkpt lat="56.2940320" lon="43.9680450"><time>2020-05-30T16:42:59.933</time></trkpt><trkpt lat="56.2939640" lon="43.9680790"><time>2020-05-30T16:43:01.927</time></trkpt><trkpt lat="56.2938950" lon="43.9681170"><time>2020-05-30T16:43:03.923</time></trkpt><trkpt lat="56.2938420" lon="43.9681490"><time>2020-05-30T16:43:05.923</time></trkpt><trkpt lat="56.2937950" lon="43.9681810"><time>2020-05-30T16:43:07.927</time></trkpt><trkpt lat="56.2937450" lon="43.9682040"><time>2020-05-30T16:43:09.927</time></trkpt><trkpt lat="56.2936810" lon="43.9682240"><time>2020-05-30T16:43:11.923</time></trkpt><trkpt lat="56.2936200" lon="43.9682390"><time>2020-05-30T16:43:13.923</time></trkpt><trkpt lat="56.2935720" lon="43.9682440"><time>2020-05-30T16:43:15.923</time></trkpt><trkpt lat="56.2935230" lon="43.9682420"><time>2020-05-30T16:43:17.927</time></trkpt><trkpt lat="56.2934670" lon="43.9682370"><time>2020-05-30T16:43:19.923</time></trkpt><trkpt lat="56.2933860" lon="43.9682480"><time>2020-05-30T16:43:21.927</time></trkpt><trkpt lat="56.2933160" lon="43.9682680"><time>2020-05-30T16:43:23.923</time></trkpt><trkpt lat="56.2932540" lon="43.9682890"><time>2020-05-30T16:43:25.927</time></trkpt><trkpt lat="56.2931960" lon="43.9683080"><time>2020-05-30T16:43:27.927</time></trkpt><trkpt lat="56.2931330" lon="43.9683010"><time>2020-05-30T16:43:29.923</time></trkpt><trkpt lat="56.2930590" lon="43.9682780"><time>2020-05-30T16:43:31.923</time></trkpt><trkpt lat="56.2929880" lon="43.9682740"><time>2020-05-30T16:43:33.923</time></trkpt><trkpt lat="56.2929070" lon="43.9682840"><time>2020-05-30T16:43:35.923</time></trkpt><trkpt lat="56.2928330" lon="43.9682970"><time>2020-05-30T16:43:37.923</time></trkpt><trkpt lat="56.2927740" lon="43.9683220"><time>2020-05-30T16:43:39.923</time></trkpt><trkpt lat="56.2927070" lon="43.9683380"><time>2020-05-30T16:43:41.923</time></trkpt><trkpt lat="56.2926560" lon="43.9683520"><time>2020-05-30T16:43:43.927</time></trkpt><trkpt lat="56.2926110" lon="43.9683720"><time>2020-05-30T16:43:45.923</time></trkpt><trkpt lat="56.2925540" lon="43.9684000"><time>2020-05-30T16:43:48.947</time></trkpt><trkpt lat="56.2925020" lon="43.9683990"><time>2020-05-30T16:43:50.923</time></trkpt><trkpt lat="56.2924410" lon="43.9684210"><time>2020-05-30T16:43:52.930</time></trkpt><trkpt lat="56.2923800" lon="43.9684430"><time>2020-05-30T16:43:54.923</time></trkpt><trkpt lat="56.2923150" lon="43.9684350"><time>2020-05-30T16:43:56.920</time></trkpt><trkpt lat="56.2922440" lon="43.9684260"><time>2020-05-30T16:43:58.923</time></trkpt><trkpt lat="56.2921770" lon="43.9684280"><time>2020-05-30T16:44:00.920</time></trkpt><trkpt lat="56.2921190" lon="43.9684380"><time>2020-05-30T16:44:02.927</time></trkpt><trkpt lat="56.2920550" lon="43.9684520"><time>2020-05-30T16:44:04.927</time></trkpt><trkpt lat="56.2919980" lon="43.9684590"><time>2020-05-30T16:44:06.920</time></trkpt><trkpt lat="56.2919530" lon="43.9684820"><time>2020-05-30T16:44:08.923</time></trkpt><trkpt lat="56.2919060" lon="43.9685200"><time>2020-05-30T16:44:11.920</time></trkpt><trkpt lat="56.2918610" lon="43.9685220"><time>2020-05-30T16:44:13.920</time></trkpt><trkpt lat="56.2918040" lon="43.9685060"><time>2020-05-30T16:44:15.917</time></trkpt><trkpt lat="56.2917330" lon="43.9685510"><time>2020-05-30T16:44:18.917</time></trkpt><trkpt lat="56.2916930" lon="43.9686070"><time>2020-05-30T16:44:20.920</time></trkpt><trkpt lat="56.2916530" lon="43.9686640"><time>2020-05-30T16:44:23.920</time></trkpt><trkpt lat="56.2915970" lon="43.9686870"><time>2020-05-30T16:44:25.920</time></trkpt><trkpt lat="56.2915270" lon="43.9687010"><time>2020-05-30T16:44:27.917</time></trkpt><trkpt lat="56.2914460" lon="43.9687260"><time>2020-05-30T16:44:29.917</time></trkpt><trkpt lat="56.2913620" lon="43.9687500"><time>2020-05-30T16:44:31.920</time></trkpt><trkpt lat="56.2912990" lon="43.9687850"><time>2020-05-30T16:44:33.920</time></trkpt><trkpt lat="56.2912490" lon="43.9688460"><time>2020-05-30T16:44:36.920</time></trkpt><trkpt lat="56.2911940" lon="43.9689040"><time>2020-05-30T16:44:39.920</time></trkpt><trkpt lat="56.2911410" lon="43.9689260"><time>2020-05-30T16:44:41.917</time></trkpt><trkpt lat="56.2910730" lon="43.9689870"><time>2020-05-30T16:44:44.917</time></trkpt><trkpt lat="56.2910220" lon="43.9690310"><time>2020-05-30T16:44:46.917</time></trkpt><trkpt lat="56.2909760" lon="43.9690690"><time>2020-05-30T16:44:48.920</time></trkpt><trkpt lat="56.2909220" lon="43.9691510"><time>2020-05-30T16:44:50.917</time></trkpt><trkpt lat="56.2908710" lon="43.9691410"><time>2020-05-30T16:44:55.917</time></trkpt><trkpt lat="56.2908170" lon="43.9691200"><time>2020-05-30T16:44:59.920</time></trkpt><trkpt lat="56.2908500" lon="43.9691890"><time>2020-05-30T16:45:07.917</time></trkpt><trkpt lat="56.2909080" lon="43.9693010"><time>2020-05-30T16:45:10.917</time></trkpt><trkpt lat="56.2909410" lon="43.9694200"><time>2020-05-30T16:45:12.920</time></trkpt><trkpt lat="56.2909660" lon="43.9695140"><time>2020-05-30T16:45:17.930</time></trkpt><trkpt lat="56.2909890" lon="43.9695840"><time>2020-05-30T16:45:18.927</time></trkpt><trkpt lat="56.2910250" lon="43.9696560"><time>2020-05-30T16:45:19.933</time></trkpt><trkpt lat="56.2910640" lon="43.9697360"><time>2020-05-30T16:45:20.937</time></trkpt><trkpt lat="56.2910870" lon="43.9698160"><time>2020-05-30T16:45:21.927</time></trkpt><trkpt lat="56.2911010" lon="43.9698930"><time>2020-05-30T16:45:22.923</time></trkpt><trkpt lat="56.2911110" lon="43.9699750"><time>2020-05-30T16:45:26.927</time></trkpt><trkpt lat="56.2911380" lon="43.9700410"><time>2020-05-30T16:45:32.923</time></trkpt><trkpt lat="56.2911470" lon="43.9701300"><time>2020-05-30T16:45:36.927</time></trkpt><trkpt lat="56.2911380" lon="43.9702140"><time>2020-05-30T16:45:39.930</time></trkpt><trkpt lat="56.2911230" lon="43.9701840"><time>2020-05-30T16:45:42.113</time></trkpt><trkpt lat="56.2911120" lon="43.9701480"><time>2020-05-30T16:45:46.923</time></trkpt><trkpt lat="56.2910660" lon="43.9701260"><time>2020-05-30T16:45:58.917</time></trkpt><trkpt lat="56.2910070" lon="43.9700890"><time>2020-05-30T16:46:00.923</time></trkpt><trkpt lat="56.2909560" lon="43.9700370"><time>2020-05-30T16:46:02.920</time></trkpt><trkpt lat="56.2908800" lon="43.9699870"><time>2020-05-30T16:46:04.923</time></trkpt><trkpt lat="56.2908380" lon="43.9699600"><time>2020-05-30T16:46:05.923</time></trkpt><trkpt lat="56.2907760" lon="43.9699350"><time>2020-05-30T16:46:07.920</time></trkpt><trkpt lat="56.2907280" lon="43.9699160"><time>2020-05-30T16:46:09.920</time></trkpt><trkpt lat="56.2906780" lon="43.9698860"><time>2020-05-30T16:46:11.923</time></trkpt><trkpt lat="56.2906290" lon="43.9698620"><time>2020-05-30T16:46:15.917</time></trkpt><trkpt lat="56.2905830" lon="43.9698810"><time>2020-05-30T16:46:17.920</time></trkpt><trkpt lat="56.2905320" lon="43.9699340"><time>2020-05-30T16:46:19.920</time></trkpt><trkpt lat="56.2904780" lon="43.9699660"><time>2020-05-30T16:46:22.920</time></trkpt><trkpt lat="56.2904120" lon="43.9699720"><time>2020-05-30T16:46:25.923</time></trkpt><trkpt lat="56.2903650" lon="43.9699680"><time>2020-05-30T16:46:28.920</time></trkpt><trkpt lat="56.2902960" lon="43.9699450"><time>2020-05-30T16:46:30.920</time></trkpt><trkpt lat="56.2902510" lon="43.9699160"><time>2020-05-30T16:46:31.920</time></trkpt><trkpt lat="56.2901810" lon="43.9698500"><time>2020-05-30T16:46:33.920</time></trkpt><trkpt lat="56.2901360" lon="43.9697770"><time>2020-05-30T16:46:35.927</time></trkpt><trkpt lat="56.2900770" lon="43.9697000"><time>2020-05-30T16:46:37.920</time></trkpt><trkpt lat="56.2900350" lon="43.9696300"><time>2020-05-30T16:46:39.920</time></trkpt><trkpt lat="56.2899740" lon="43.9695370"><time>2020-05-30T16:46:42.920</time></trkpt><trkpt lat="56.2899250" lon="43.9694700"><time>2020-05-30T16:46:44.920</time></trkpt><trkpt lat="56.2898840" lon="43.9693650"><time>2020-05-30T16:46:46.920</time></trkpt><trkpt lat="56.2898480" lon="43.9692630"><time>2020-05-30T16:46:48.920</time></trkpt><trkpt lat="56.2898140" lon="43.9691870"><time>2020-05-30T16:46:50.923</time></trkpt><trkpt lat="56.2897980" lon="43.9691040"><time>2020-05-30T16:46:52.920</time></trkpt><trkpt lat="56.2897790" lon="43.9690210"><time>2020-05-30T16:46:54.923</time></trkpt><trkpt lat="56.2897200" lon="43.9689410"><time>2020-05-30T16:46:56.923</time></trkpt><trkpt lat="56.2896630" lon="43.9688920"><time>2020-05-30T16:46:58.923</time></trkpt><trkpt lat="56.2895970" lon="43.9689040"><time>2020-05-30T16:47:01.923</time></trkpt><trkpt lat="56.2895460" lon="43.9689080"><time>2020-05-30T16:47:03.923</time></trkpt><trkpt lat="56.2894960" lon="43.9689020"><time>2020-05-30T16:47:06.920</time></trkpt><trkpt lat="56.2894430" lon="43.9689090"><time>2020-05-30T16:47:08.923</time></trkpt><trkpt lat="56.2893810" lon="43.9689350"><time>2020-05-30T16:47:10.923</time></trkpt><trkpt lat="56.2893330" lon="43.9689460"><time>2020-05-30T16:47:12.923</time></trkpt><trkpt lat="56.2892750" lon="43.9689700"><time>2020-05-30T16:47:15.923</time></trkpt><trkpt lat="56.2892250" lon="43.9690170"><time>2020-05-30T16:47:17.927</time></trkpt><trkpt lat="56.2891620" lon="43.9690440"><time>2020-05-30T16:47:19.920</time></trkpt><trkpt lat="56.2890920" lon="43.9690700"><time>2020-05-30T16:47:21.923</time></trkpt><trkpt lat="56.2890430" lon="43.9691010"><time>2020-05-30T16:47:23.920</time></trkpt><trkpt lat="56.2889770" lon="43.9691400"><time>2020-05-30T16:47:26.920</time></trkpt><trkpt lat="56.2889130" lon="43.9691840"><time>2020-05-30T16:47:28.920</time></trkpt><trkpt lat="56.2888600" lon="43.9692260"><time>2020-05-30T16:47:30.923</time></trkpt><trkpt lat="56.2888050" lon="43.9692610"><time>2020-05-30T16:47:32.923</time></trkpt><trkpt lat="56.2887470" lon="43.9692740"><time>2020-05-30T16:47:34.920</time></trkpt><trkpt lat="56.2886750" lon="43.9693050"><time>2020-05-30T16:47:36.920</time></trkpt><trkpt lat="56.2886070" lon="43.9693410"><time>2020-05-30T16:47:38.920</time></trkpt><trkpt lat="56.2885650" lon="43.9693870"><time>2020-05-30T16:47:40.920</time></trkpt><trkpt lat="56.2885130" lon="43.9694350"><time>2020-05-30T16:47:42.920</time></trkpt><trkpt lat="56.2884480" lon="43.9694730"><time>2020-05-30T16:47:44.920</time></trkpt><trkpt lat="56.2883900" lon="43.9695170"><time>2020-05-30T16:47:46.920</time></trkpt><trkpt lat="56.2883240" lon="43.9695580"><time>2020-05-30T16:47:48.920</time></trkpt><trkpt lat="56.2882580" lon="43.9695870"><time>2020-05-30T16:47:50.923</time></trkpt><trkpt lat="56.2881930" lon="43.9696140"><time>2020-05-30T16:47:52.920</time></trkpt><trkpt lat="56.2881250" lon="43.9696310"><time>2020-05-30T16:47:54.923</time></trkpt><trkpt lat="56.2880610" lon="43.9696320"><time>2020-05-30T16:47:56.920</time></trkpt><trkpt lat="56.2880160" lon="43.9696430"><time>2020-05-30T16:47:58.923</time></trkpt><trkpt lat="56.2879650" lon="43.9696670"><time>2020-05-30T16:48:00.923</time></trkpt><trkpt lat="56.2879060" lon="43.9696810"><time>2020-05-30T16:48:02.923</time></trkpt><trkpt lat="56.2878490" lon="43.9696910"><time>2020-05-30T16:48:04.923</time></trkpt><trkpt lat="56.2877970" lon="43.9697210"><time>2020-05-30T16:48:06.923</time></trkpt><trkpt lat="56.2877550" lon="43.9697560"><time>2020-05-30T16:48:08.923</time></trkpt><trkpt lat="56.2876950" lon="43.9697720"><time>2020-05-30T16:48:11.920</time></trkpt><trkpt lat="56.2876310" lon="43.9697830"><time>2020-05-30T16:48:14.923</time></trkpt><trkpt lat="56.2875640" lon="43.9697890"><time>2020-05-30T16:48:16.930</time></trkpt><trkpt lat="56.2874950" lon="43.9697960"><time>2020-05-30T16:48:18.923</time></trkpt><trkpt lat="56.2874420" lon="43.9698240"><time>2020-05-30T16:48:20.927</time></trkpt><trkpt lat="56.2874010" lon="43.9698890"><time>2020-05-30T16:48:22.937</time></trkpt><trkpt lat="56.2873820" lon="43.9699500"><time>2020-05-30T16:48:27.480</time></trkpt><trkpt lat="56.2873820" lon="43.9699650"><time>2020-05-30T16:48:27.923</time></trkpt><trkpt lat="56.2873300" lon="43.9699790"><time>2020-05-30T16:48:35.923</time></trkpt><trkpt lat="56.2872640" lon="43.9699650"><time>2020-05-30T16:48:38.920</time></trkpt><trkpt lat="56.2871870" lon="43.9699630"><time>2020-05-30T16:48:43.027</time></trkpt><trkpt lat="56.2871130" lon="43.9699570"><time>2020-05-30T16:48:45.920</time></trkpt><trkpt lat="56.2870440" lon="43.9699720"><time>2020-05-30T16:48:48.923</time></trkpt><trkpt lat="56.2869820" lon="43.9699820"><time>2020-05-30T16:48:52.920</time></trkpt><trkpt lat="56.2869240" lon="43.9699990"><time>2020-05-30T16:48:55.923</time></trkpt><trkpt lat="56.2868710" lon="43.9700030"><time>2020-05-30T16:48:57.923</time></trkpt><trkpt lat="56.2868180" lon="43.9699980"><time>2020-05-30T16:48:59.923</time></trkpt><trkpt lat="56.2867720" lon="43.9700090"><time>2020-05-30T16:49:02.110</time></trkpt><trkpt lat="56.2867070" lon="43.9700290"><time>2020-05-30T16:49:04.923</time></trkpt><trkpt lat="56.2866610" lon="43.9700230"><time>2020-05-30T16:49:06.920</time></trkpt><trkpt lat="56.2866010" lon="43.9700490"><time>2020-05-30T16:49:09.920</time></trkpt><trkpt lat="56.2865450" lon="43.9700520"><time>2020-05-30T16:49:12.923</time></trkpt><trkpt lat="56.2864920" lon="43.9700330"><time>2020-05-30T16:49:14.923</time></trkpt><trkpt lat="56.2864470" lon="43.9700240"><time>2020-05-30T16:49:17.920</time></trkpt><trkpt lat="56.2863830" lon="43.9700240"><time>2020-05-30T16:49:20.920</time></trkpt><trkpt lat="56.2863340" lon="43.9700350"><time>2020-05-30T16:49:22.923</time></trkpt><trkpt lat="56.2862850" lon="43.9700540"><time>2020-05-30T16:49:24.923</time></trkpt><trkpt lat="56.2862390" lon="43.9701070"><time>2020-05-30T16:49:27.920</time></trkpt><trkpt lat="56.2862090" lon="43.9701690"><time>2020-05-30T16:49:29.920</time></trkpt><trkpt lat="56.2862030" lon="43.9702760"><time>2020-05-30T16:49:32.920</time></trkpt><trkpt lat="56.2862260" lon="43.9703740"><time>2020-05-30T16:49:35.923</time></trkpt><trkpt lat="56.2862570" lon="43.9704670"><time>2020-05-30T16:49:38.923</time></trkpt><trkpt lat="56.2862880" lon="43.9705340"><time>2020-05-30T16:49:40.920</time></trkpt><trkpt lat="56.2863090" lon="43.9706100"><time>2020-05-30T16:49:43.920</time></trkpt><trkpt lat="56.2862990" lon="43.9707190"><time>2020-05-30T16:49:48.923</time></trkpt><trkpt lat="56.2863150" lon="43.9708000"><time>2020-05-30T16:49:51.923</time></trkpt><trkpt lat="56.2863390" lon="43.9708980"><time>2020-05-30T16:49:55.917</time></trkpt><trkpt lat="56.2863450" lon="43.9709850"><time>2020-05-30T16:49:58.920</time></trkpt><trkpt lat="56.2863580" lon="43.9710630"><time>2020-05-30T16:50:01.917</time></trkpt><trkpt lat="56.2863810" lon="43.9711590"><time>2020-05-30T16:50:04.917</time></trkpt><trkpt lat="56.2864030" lon="43.9712350"><time>2020-05-30T16:50:07.917</time></trkpt><trkpt lat="56.2864310" lon="43.9713270"><time>2020-05-30T16:50:10.917</time></trkpt><trkpt lat="56.2864440" lon="43.9714120"><time>2020-05-30T16:50:12.920</time></trkpt><trkpt lat="56.2864660" lon="43.9714950"><time>2020-05-30T16:50:16.917</time></trkpt><trkpt lat="56.2865030" lon="43.9715610"><time>2020-05-30T16:50:19.917</time></trkpt><trkpt lat="56.2865420" lon="43.9716410"><time>2020-05-30T16:50:22.920</time></trkpt><trkpt lat="56.2865450" lon="43.9717710"><time>2020-05-30T16:50:25.927</time></trkpt><trkpt lat="56.2865650" lon="43.9718470"><time>2020-05-30T16:50:27.917</time></trkpt><trkpt lat="56.2866070" lon="43.9719250"><time>2020-05-30T16:50:30.923</time></trkpt><trkpt lat="56.2866530" lon="43.9719470"><time>2020-05-30T16:50:32.917</time></trkpt><trkpt lat="56.2867040" lon="43.9719570"><time>2020-05-30T16:50:34.920</time></trkpt><trkpt lat="56.2867700" lon="43.9719360"><time>2020-05-30T16:50:37.920</time></trkpt><trkpt lat="56.2868390" lon="43.9718900"><time>2020-05-30T16:50:40.920</time></trkpt><trkpt lat="56.2868830" lon="43.9718050"><time>2020-05-30T16:50:44.507</time></trkpt><trkpt lat="56.2869160" lon="43.9717370"><time>2020-05-30T16:50:45.917</time></trkpt><trkpt lat="56.2869420" lon="43.9716400"><time>2020-05-30T16:50:47.917</time></trkpt><trkpt lat="56.2869620" lon="43.9715570"><time>2020-05-30T16:50:48.917</time></trkpt><trkpt lat="56.2868500" lon="43.9721070"><time>2020-05-30T16:50:49.920</time></trkpt><trkpt lat="56.2867550" lon="43.9728050"><time>2020-05-30T16:50:50.917</time></trkpt><trkpt lat="56.2867850" lon="43.9727090"><time>2020-05-30T16:50:51.917</time></trkpt><trkpt lat="56.2868350" lon="43.9727420"><time>2020-05-30T16:50:54.920</time></trkpt><trkpt lat="56.2868970" lon="43.9727540"><time>2020-05-30T16:50:58.930</time></trkpt><trkpt lat="56.2869530" lon="43.9727580"><time>2020-05-30T16:51:01.920</time></trkpt><trkpt lat="56.2870160" lon="43.9727430"><time>2020-05-30T16:51:05.920</time></trkpt><trkpt lat="56.2870510" lon="43.9726880"><time>2020-05-30T16:51:08.917</time></trkpt><trkpt lat="56.2871000" lon="43.9726720"><time>2020-05-30T16:51:13.917</time></trkpt><trkpt lat="56.2871230" lon="43.9727440"><time>2020-05-30T16:51:17.920</time></trkpt><trkpt lat="56.2871370" lon="43.9728540"><time>2020-05-30T16:51:22.920</time></trkpt><trkpt lat="56.2871720" lon="43.9729400"><time>2020-05-30T16:51:25.923</time></trkpt><trkpt lat="56.2872000" lon="43.9730380"><time>2020-05-30T16:51:28.927</time></trkpt><trkpt lat="56.2872300" lon="43.9731320"><time>2020-05-30T16:51:31.927</time></trkpt><trkpt lat="56.2872610" lon="43.9732120"><time>2020-05-30T16:51:34.927</time></trkpt><trkpt lat="56.2873030" lon="43.9732590"><time>2020-05-30T16:51:37.917</time></trkpt><trkpt lat="56.2873460" lon="43.9733320"><time>2020-05-30T16:51:40.917</time></trkpt><trkpt lat="56.2873850" lon="43.9734020"><time>2020-05-30T16:51:43.923</time></trkpt><trkpt lat="56.2874100" lon="43.9734760"><time>2020-05-30T16:51:46.923</time></trkpt><trkpt lat="56.2874500" lon="43.9735460"><time>2020-05-30T16:51:49.917</time></trkpt><trkpt lat="56.2874870" lon="43.9736020"><time>2020-05-30T16:51:52.917</time></trkpt><trkpt lat="56.2875150" lon="43.9736840"><time>2020-05-30T16:51:56.920</time></trkpt><trkpt lat="56.2875430" lon="43.9738000"><time>2020-05-30T16:51:59.920</time></trkpt><trkpt lat="56.2875420" lon="43.9739040"><time>2020-05-30T16:52:01.917</time></trkpt><trkpt lat="56.2875360" lon="43.9739910"><time>2020-05-30T16:52:03.917</time></trkpt><trkpt lat="56.2875260" lon="43.9740740"><time>2020-05-30T16:52:05.920</time></trkpt><trkpt lat="56.2875400" lon="43.9741600"><time>2020-05-30T16:52:09.920</time></trkpt><trkpt lat="56.2875880" lon="43.9741840"><time>2020-05-30T16:52:13.917</time></trkpt><trkpt lat="56.2876300" lon="43.9742200"><time>2020-05-30T16:52:16.920</time></trkpt><trkpt lat="56.2876520" lon="43.9743070"><time>2020-05-30T16:52:20.923</time></trkpt><trkpt lat="56.2876510" lon="43.9743900"><time>2020-05-30T16:52:22.937</time></trkpt><trkpt lat="56.2876680" lon="43.9744750"><time>2020-05-30T16:52:24.923</time></trkpt><trkpt lat="56.2876890" lon="43.9745800"><time>2020-05-30T16:52:27.920</time></trkpt><trkpt lat="56.2877090" lon="43.9746790"><time>2020-05-30T16:52:31.920</time></trkpt><trkpt lat="56.2877090" lon="43.9747640"><time>2020-05-30T16:52:35.920</time></trkpt><trkpt lat="56.2877320" lon="43.9748560"><time>2020-05-30T16:52:38.917</time></trkpt><trkpt lat="56.2877780" lon="43.9749220"><time>2020-05-30T16:52:41.917</time></trkpt><trkpt lat="56.2878000" lon="43.9750200"><time>2020-05-30T16:52:44.920</time></trkpt><trkpt lat="56.2878300" lon="43.9751050"><time>2020-05-30T16:52:48.920</time></trkpt><trkpt lat="56.2878710" lon="43.9751840"><time>2020-05-30T16:52:52.920</time></trkpt><trkpt lat="56.2878910" lon="43.9752880"><time>2020-05-30T16:52:55.917</time></trkpt><trkpt lat="56.2879020" lon="43.9753820"><time>2020-05-30T16:52:58.920</time></trkpt><trkpt lat="56.2879360" lon="43.9754900"><time>2020-05-30T16:53:01.917</time></trkpt><trkpt lat="56.2879740" lon="43.9755470"><time>2020-05-30T16:53:03.917</time></trkpt><trkpt lat="56.2880110" lon="43.9756200"><time>2020-05-30T16:53:06.920</time></trkpt><trkpt lat="56.2880280" lon="43.9757180"><time>2020-05-30T16:53:09.917</time></trkpt><trkpt lat="56.2880420" lon="43.9758120"><time>2020-05-30T16:53:12.920</time></trkpt><trkpt lat="56.2880740" lon="43.9758770"><time>2020-05-30T16:53:16.917</time></trkpt><trkpt lat="56.2880990" lon="43.9759570"><time>2020-05-30T16:53:20.917</time></trkpt><trkpt lat="56.2881440" lon="43.9760710"><time>2020-05-30T16:53:26.517</time></trkpt><trkpt lat="56.2881760" lon="43.9761390"><time>2020-05-30T16:53:28.917</time></trkpt><trkpt lat="56.2882190" lon="43.9761910"><time>2020-05-30T16:53:31.917</time></trkpt><trkpt lat="56.2882540" lon="43.9762890"><time>2020-05-30T16:53:35.917</time></trkpt><trkpt lat="56.2882770" lon="43.9763760"><time>2020-05-30T16:53:37.917</time></trkpt><trkpt lat="56.2883150" lon="43.9764420"><time>2020-05-30T16:53:40.917</time></trkpt><trkpt lat="56.2883580" lon="43.9765160"><time>2020-05-30T16:53:44.917</time></trkpt><trkpt lat="56.2883810" lon="43.9765930"><time>2020-05-30T16:53:46.917</time></trkpt><trkpt lat="56.2884060" lon="43.9766850"><time>2020-05-30T16:53:50.920</time></trkpt><trkpt lat="56.2884200" lon="43.9767840"><time>2020-05-30T16:53:53.920</time></trkpt><trkpt lat="56.2884130" lon="43.9768650"><time>2020-05-30T16:53:55.920</time></trkpt><trkpt lat="56.2883990" lon="43.9769490"><time>2020-05-30T16:53:57.920</time></trkpt><trkpt lat="56.2883890" lon="43.9770600"><time>2020-05-30T16:54:00.920</time></trkpt><trkpt lat="56.2883770" lon="43.9771840"><time>2020-05-30T16:54:03.920</time></trkpt><trkpt lat="56.2883610" lon="43.9772890"><time>2020-05-30T16:54:06.920</time></trkpt><trkpt lat="56.2883500" lon="43.9773900"><time>2020-05-30T16:54:08.923</time></trkpt><trkpt lat="56.2883330" lon="43.9774890"><time>2020-05-30T16:54:10.923</time></trkpt><trkpt lat="56.2883150" lon="43.9775850"><time>2020-05-30T16:54:12.920</time></trkpt><trkpt lat="56.2882830" lon="43.9776760"><time>2020-05-30T16:54:14.923</time></trkpt><trkpt lat="56.2882540" lon="43.9777670"><time>2020-05-30T16:54:17.923</time></trkpt><trkpt lat="56.2882250" lon="43.9778550"><time>2020-05-30T16:54:19.917</time></trkpt><trkpt lat="56.2882030" lon="43.9779730"><time>2020-05-30T16:54:22.923</time></trkpt><trkpt lat="56.2881790" lon="43.9780800"><time>2020-05-30T16:54:24.920</time></trkpt><trkpt lat="56.2881610" lon="43.9781800"><time>2020-05-30T16:54:27.923</time></trkpt><trkpt lat="56.2881650" lon="43.9782770"><time>2020-05-30T16:54:32.920</time></trkpt><trkpt lat="56.2881910" lon="43.9783780"><time>2020-05-30T16:54:35.917</time></trkpt><trkpt lat="56.2881810" lon="43.9784860"><time>2020-05-30T16:54:38.920</time></trkpt><trkpt lat="56.2881920" lon="43.9785880"><time>2020-05-30T16:54:40.927</time></trkpt><trkpt lat="56.2882130" lon="43.9787120"><time>2020-05-30T16:54:42.927</time></trkpt><trkpt lat="56.2882360" lon="43.9788200"><time>2020-05-30T16:54:44.927</time></trkpt><trkpt lat="56.2882620" lon="43.9789260"><time>2020-05-30T16:54:46.923</time></trkpt><trkpt lat="56.2882810" lon="43.9790200"><time>2020-05-30T16:54:48.927</time></trkpt><trkpt lat="56.2882970" lon="43.9791140"><time>2020-05-30T16:54:50.923</time></trkpt><trkpt lat="56.2883140" lon="43.9792180"><time>2020-05-30T16:54:53.923</time></trkpt><trkpt lat="56.2883320" lon="43.9793270"><time>2020-05-30T16:54:56.930</time></trkpt></trkseg></trk></gpx>